sensor_id;sensor_type;location;lat;lon;timestamp;P1;durP1;ratioP1;P2;durP2;ratioP2
20421;SDS011;10370;53.102;18.034;2023-07-02T00:03:23;15.23;;;9.93;;
20421;SDS011;10370;53.102;18.034;2023-07-02T00:08:46;13.27;;;9.82;;
20421;SDS011;10370;53.102;18.034;2023-07-02T00:14:09;12.23;;;9.25;;
20421;SDS011;10370;53.102;18.034;2023-07-02T00:19:32;14.30;;;9.15;;
20421;SDS011;10370;53.102;18.034;2023-07-02T00:24:55;13.85;;;9.10;;
20421;SDS011;10370;53.102;18.034;2023-07-02T00:30:18;14.77;;;8.10;;
20421;SDS011;10370;53.102;18.034;2023-07-02T00:35:40;13.25;;;8.80;;
20421;SDS011;10370;53.102;18.034;2023-07-02T00:41:03;11.90;;;8.63;;
20421;SDS011;10370;53.102;18.034;2023-07-02T00:46:26;13.65;;;8.68;;
20421;SDS011;10370;53.102;18.034;2023-07-02T00:51:49;15.35;;;8.93;;
20421;SDS011;10370;53.102;18.034;2023-07-02T00:57:12;15.57;;;8.35;;
20421;SDS011;10370;53.102;18.034;2023-07-02T01:02:34;11.38;;;8.30;;
20421;SDS011;10370;53.102;18.034;2023-07-02T01:07:57;14.32;;;9.07;;
20421;SDS011;10370;53.102;18.034;2023-07-02T01:13:21;11.15;;;8.52;;
20421;SDS011;10370;53.102;18.034;2023-07-02T01:18:46;11.20;;;8.52;;
20421;SDS011;10370;53.102;18.034;2023-07-02T01:24:08;14.18;;;9.02;;
20421;SDS011;10370;53.102;18.034;2023-07-02T01:29:31;12.77;;;8.85;;
20421;SDS011;10370;53.102;18.034;2023-07-02T01:34:54;12.48;;;9.55;;
20421;SDS011;10370;53.102;18.034;2023-07-02T01:40:17;14.00;;;9.10;;
20421;SDS011;10370;53.102;18.034;2023-07-02T01:45:41;13.82;;;8.75;;
20421;SDS011;10370;53.102;18.034;2023-07-02T01:51:04;17.27;;;9.10;;
20421;SDS011;10370;53.102;18.034;2023-07-02T01:56:26;11.57;;;8.60;;
20421;SDS011;10370;53.102;18.034;2023-07-02T02:01:50;13.13;;;8.40;;
20421;SDS011;10370;53.102;18.034;2023-07-02T02:07:13;10.73;;;7.20;;
20421;SDS011;10370;53.102;18.034;2023-07-02T02:12:36;10.52;;;6.93;;
20421;SDS011;10370;53.102;18.034;2023-07-02T02:17:59;9.80;;;6.50;;
20421;SDS011;10370;53.102;18.034;2023-07-02T02:23:21;9.15;;;6.40;;
20421;SDS011;10370;53.102;18.034;2023-07-02T02:28:44;11.77;;;6.20;;
20421;SDS011;10370;53.102;18.034;2023-07-02T02:34:06;7.80;;;5.40;;
20421;SDS011;10370;53.102;18.034;2023-07-02T02:39:32;7.93;;;5.57;;
20421;SDS011;10370;53.102;18.034;2023-07-02T02:44:55;11.65;;;5.47;;
20421;SDS011;10370;53.102;18.034;2023-07-02T02:50:17;7.25;;;5.07;;
20421;SDS011;10370;53.102;18.034;2023-07-02T02:55:40;8.25;;;6.03;;
20421;SDS011;10370;53.102;18.034;2023-07-02T03:01:03;8.52;;;5.32;;
20421;SDS011;10370;53.102;18.034;2023-07-02T03:06:32;7.50;;;5.40;;
20421;SDS011;10370;53.102;18.034;2023-07-02T03:11:55;9.07;;;5.53;;
20421;SDS011;10370;53.102;18.034;2023-07-02T03:17:21;10.38;;;5.55;;
20421;SDS011;10370;53.102;18.034;2023-07-02T03:22:44;9.43;;;5.70;;
20421;SDS011;10370;53.102;18.034;2023-07-02T03:28:07;10.63;;;5.40;;
20421;SDS011;10370;53.102;18.034;2023-07-02T03:33:29;8.70;;;4.93;;
20421;SDS011;10370;53.102;18.034;2023-07-02T03:38:54;6.63;;;4.55;;
20421;SDS011;10370;53.102;18.034;2023-07-02T03:44:16;7.68;;;5.20;;
20421;SDS011;10370;53.102;18.034;2023-07-02T03:49:39;10.27;;;4.82;;
20421;SDS011;10370;53.102;18.034;2023-07-02T03:55:01;11.63;;;5.53;;
20421;SDS011;10370;53.102;18.034;2023-07-02T04:00:24;7.10;;;4.93;;
20421;SDS011;10370;53.102;18.034;2023-07-02T04:05:46;7.05;;;4.55;;
20421;SDS011;10370;53.102;18.034;2023-07-02T04:11:09;6.18;;;4.78;;
20421;SDS011;10370;53.102;18.034;2023-07-02T04:16:33;7.53;;;4.63;;
20421;SDS011;10370;53.102;18.034;2023-07-02T04:21:55;7.05;;;5.15;;
20421;SDS011;10370;53.102;18.034;2023-07-02T04:27:18;8.57;;;5.15;;
20421;SDS011;10370;53.102;18.034;2023-07-02T04:33:00;8.77;;;4.65;;
20421;SDS011;10370;53.102;18.034;2023-07-02T04:38:22;5.60;;;4.22;;
20421;SDS011;10370;53.102;18.034;2023-07-02T04:43:45;15.38;;;4.82;;
20421;SDS011;10370;53.102;18.034;2023-07-02T04:49:07;6.07;;;4.47;;
20421;SDS011;10370;53.102;18.034;2023-07-02T04:54:30;8.18;;;4.50;;
20421;SDS011;10370;53.102;18.034;2023-07-02T04:59:53;5.90;;;4.22;;
20421;SDS011;10370;53.102;18.034;2023-07-02T05:05:16;7.95;;;4.50;;
20421;SDS011;10370;53.102;18.034;2023-07-02T05:10:39;5.70;;;3.80;;
20421;SDS011;10370;53.102;18.034;2023-07-02T05:16:02;4.05;;;3.30;;
20421;SDS011;10370;53.102;18.034;2023-07-02T05:21:25;8.10;;;4.18;;
20421;SDS011;10370;53.102;18.034;2023-07-02T05:26:48;6.22;;;3.63;;
20421;SDS011;10370;53.102;18.034;2023-07-02T05:32:12;4.15;;;3.70;;
20421;SDS011;10370;53.102;18.034;2023-07-02T05:37:34;6.63;;;4.10;;
20421;SDS011;10370;53.102;18.034;2023-07-02T05:42:57;4.82;;;3.60;;
20421;SDS011;10370;53.102;18.034;2023-07-02T05:48:20;3.78;;;3.25;;
20421;SDS011;10370;53.102;18.034;2023-07-02T05:53:42;5.97;;;3.40;;
20421;SDS011;10370;53.102;18.034;2023-07-02T05:59:05;3.15;;;2.85;;
20421;SDS011;10370;53.102;18.034;2023-07-02T06:04:28;3.67;;;2.83;;
20421;SDS011;10370;53.102;18.034;2023-07-02T06:09:50;2.88;;;2.40;;
20421;SDS011;10370;53.102;18.034;2023-07-02T06:15:13;3.92;;;2.50;;
20421;SDS011;10370;53.102;18.034;2023-07-02T06:20:35;2.90;;;2.40;;
20421;SDS011;10370;53.102;18.034;2023-07-02T06:25:58;4.85;;;2.50;;
20421;SDS011;10370;53.102;18.034;2023-07-02T06:31:23;7.18;;;2.67;;
20421;SDS011;10370;53.102;18.034;2023-07-02T06:36:46;5.78;;;3.67;;
20421;SDS011;10370;53.102;18.034;2023-07-02T06:42:09;3.65;;;2.80;;
20421;SDS011;10370;53.102;18.034;2023-07-02T06:47:32;9.10;;;3.30;;
20421;SDS011;10370;53.102;18.034;2023-07-02T06:52:55;3.38;;;3.08;;
20421;SDS011;10370;53.102;18.034;2023-07-02T06:58:17;6.45;;;3.38;;
20421;SDS011;10370;53.102;18.034;2023-07-02T07:03:40;5.63;;;3.30;;
20421;SDS011;10370;53.102;18.034;2023-07-02T07:09:03;6.05;;;3.45;;
20421;SDS011;10370;53.102;18.034;2023-07-02T07:14:26;7.45;;;4.18;;
20421;SDS011;10370;53.102;18.034;2023-07-02T07:19:49;4.72;;;3.95;;
20421;SDS011;10370;53.102;18.034;2023-07-02T07:25:11;5.75;;;3.70;;
20421;SDS011;10370;53.102;18.034;2023-07-02T07:30:34;5.20;;;3.95;;
20421;SDS011;10370;53.102;18.034;2023-07-02T07:35:56;9.60;;;3.97;;
20421;SDS011;10370;53.102;18.034;2023-07-02T07:41:19;5.18;;;3.70;;
20421;SDS011;10370;53.102;18.034;2023-07-02T07:46:41;5.72;;;3.13;;
20421;SDS011;10370;53.102;18.034;2023-07-02T07:52:04;3.83;;;2.92;;
20421;SDS011;10370;53.102;18.034;2023-07-02T07:57:28;6.05;;;3.08;;
20421;SDS011;10370;53.102;18.034;2023-07-02T08:02:51;4.22;;;2.80;;
20421;SDS011;10370;53.102;18.034;2023-07-02T08:08:17;5.10;;;2.53;;
20421;SDS011;10370;53.102;18.034;2023-07-02T08:13:42;2.83;;;2.25;;
20421;SDS011;10370;53.102;18.034;2023-07-02T08:19:05;5.88;;;2.67;;
20421;SDS011;10370;53.102;18.034;2023-07-02T08:24:28;7.25;;;2.90;;
20421;SDS011;10370;53.102;18.034;2023-07-02T08:29:53;8.88;;;2.88;;
20421;SDS011;10370;53.102;18.034;2023-07-02T08:35:15;4.57;;;2.65;;
20421;SDS011;10370;53.102;18.034;2023-07-02T08:40:38;6.57;;;3.15;;
20421;SDS011;10370;53.102;18.034;2023-07-02T08:46:01;2.90;;;2.47;;
20421;SDS011;10370;53.102;18.034;2023-07-02T08:51:25;3.67;;;2.65;;
20421;SDS011;10370;53.102;18.034;2023-07-02T08:56:48;4.97;;;2.83;;
20421;SDS011;10370;53.102;18.034;2023-07-02T09:02:11;3.72;;;2.60;;
20421;SDS011;10370;53.102;18.034;2023-07-02T09:07:43;4.50;;;2.60;;
20421;SDS011;10370;53.102;18.034;2023-07-02T09:13:11;9.38;;;2.88;;
20421;SDS011;10370;53.102;18.034;2023-07-02T09:18:34;4.35;;;2.58;;
20421;SDS011;10370;53.102;18.034;2023-07-02T09:23:56;5.00;;;2.75;;
20421;SDS011;10370;53.102;18.034;2023-07-02T09:29:29;5.88;;;2.78;;
20421;SDS011;10370;53.102;18.034;2023-07-02T09:34:54;5.50;;;2.92;;
20421;SDS011;10370;53.102;18.034;2023-07-02T09:40:20;6.22;;;3.15;;
20421;SDS011;10370;53.102;18.034;2023-07-02T09:45:44;5.75;;;3.00;;
20421;SDS011;10370;53.102;18.034;2023-07-02T09:51:08;6.50;;;3.00;;
20421;SDS011;10370;53.102;18.034;2023-07-02T09:56:31;4.28;;;2.80;;
20421;SDS011;10370;53.102;18.034;2023-07-02T10:01:54;4.25;;;2.60;;
20421;SDS011;10370;53.102;18.034;2023-07-02T10:07:27;5.15;;;2.60;;
20421;SDS011;10370;53.102;18.034;2023-07-02T10:12:52;4.22;;;3.03;;
20421;SDS011;10370;53.102;18.034;2023-07-02T10:18:15;5.72;;;3.00;;
20421;SDS011;10370;53.102;18.034;2023-07-02T10:23:48;5.93;;;2.72;;
20421;SDS011;10370;53.102;18.034;2023-07-02T10:29:17;3.97;;;2.70;;
20421;SDS011;10370;53.102;18.034;2023-07-02T10:34:41;6.35;;;2.92;;
20421;SDS011;10370;53.102;18.034;2023-07-02T10:40:05;8.60;;;3.35;;
20421;SDS011;10370;53.102;18.034;2023-07-02T10:45:32;5.63;;;3.17;;
20421;SDS011;10370;53.102;18.034;2023-07-02T10:50:56;5.13;;;3.88;;
20421;SDS011;10370;53.102;18.034;2023-07-02T10:56:19;7.57;;;2.97;;
20421;SDS011;10370;53.102;18.034;2023-07-02T11:01:42;5.40;;;3.30;;
20421;SDS011;10370;53.102;18.034;2023-07-02T11:07:04;8.65;;;3.47;;
20421;SDS011;10370;53.102;18.034;2023-07-02T11:12:28;9.50;;;2.80;;
20421;SDS011;10370;53.102;18.034;2023-07-02T11:17:53;9.55;;;2.92;;
20421;SDS011;10370;53.102;18.034;2023-07-02T11:23:19;7.85;;;2.65;;
20421;SDS011;10370;53.102;18.034;2023-07-02T11:28:48;3.92;;;2.60;;
20421;SDS011;10370;53.102;18.034;2023-07-02T11:34:13;9.43;;;3.00;;
20421;SDS011;10370;53.102;18.034;2023-07-02T11:39:39;7.10;;;2.97;;
20421;SDS011;10370;53.102;18.034;2023-07-02T11:45:02;5.90;;;2.80;;
20421;SDS011;10370;53.102;18.034;2023-07-02T11:50:24;5.40;;;2.70;;
20421;SDS011;10370;53.102;18.034;2023-07-02T11:55:48;4.57;;;2.75;;
20421;SDS011;10370;53.102;18.034;2023-07-02T12:01:11;7.20;;;2.90;;
20421;SDS011;10370;53.102;18.034;2023-07-02T12:06:33;4.93;;;3.25;;
20421;SDS011;10370;53.102;18.034;2023-07-02T12:11:56;4.18;;;2.90;;
20421;SDS011;10370;53.102;18.034;2023-07-02T12:17:19;12.68;;;3.08;;
20421;SDS011;10370;53.102;18.034;2023-07-02T12:22:42;5.18;;;2.90;;
20421;SDS011;10370;53.102;18.034;2023-07-02T12:28:06;8.18;;;2.92;;
20421;SDS011;10370;53.102;18.034;2023-07-02T12:33:30;7.00;;;3.22;;
20421;SDS011;10370;53.102;18.034;2023-07-02T12:38:55;7.80;;;3.05;;
20421;SDS011;10370;53.102;18.034;2023-07-02T12:44:18;4.90;;;3.10;;
20421;SDS011;10370;53.102;18.034;2023-07-02T12:49:40;7.68;;;2.97;;
20421;SDS011;10370;53.102;18.034;2023-07-02T12:55:06;6.20;;;2.90;;
20421;SDS011;10370;53.102;18.034;2023-07-02T13:00:30;9.00;;;3.22;;
20421;SDS011;10370;53.102;18.034;2023-07-02T13:05:52;9.05;;;3.30;;
20421;SDS011;10370;53.102;18.034;2023-07-02T13:11:15;16.30;;;3.40;;
20421;SDS011;10370;53.102;18.034;2023-07-02T13:16:39;8.52;;;3.20;;
20421;SDS011;10370;53.102;18.034;2023-07-02T13:22:01;10.10;;;3.38;;
20421;SDS011;10370;53.102;18.034;2023-07-02T13:27:25;10.35;;;3.20;;
20421;SDS011;10370;53.102;18.034;2023-07-02T13:32:47;8.15;;;3.72;;
20421;SDS011;10370;53.102;18.034;2023-07-02T13:38:10;8.77;;;3.13;;
20421;SDS011;10370;53.102;18.034;2023-07-02T13:43:33;8.20;;;3.30;;
20421;SDS011;10370;53.102;18.034;2023-07-02T13:48:56;9.85;;;3.22;;
20421;SDS011;10370;53.102;18.034;2023-07-02T13:54:23;9.77;;;3.15;;
20421;SDS011;10370;53.102;18.034;2023-07-02T13:59:49;4.80;;;3.05;;
20421;SDS011;10370;53.102;18.034;2023-07-02T14:05:16;11.60;;;3.38;;
20421;SDS011;10370;53.102;18.034;2023-07-02T14:10:39;8.77;;;3.58;;
20421;SDS011;10370;53.102;18.034;2023-07-02T14:16:01;7.75;;;3.70;;
20421;SDS011;10370;53.102;18.034;2023-07-02T14:21:24;11.00;;;3.88;;
20421;SDS011;10370;53.102;18.034;2023-07-02T14:26:48;8.60;;;4.10;;
20421;SDS011;10370;53.102;18.034;2023-07-02T14:32:11;11.27;;;4.20;;
20421;SDS011;10370;53.102;18.034;2023-07-02T14:37:33;8.48;;;4.50;;
20421;SDS011;10370;53.102;18.034;2023-07-02T14:42:56;11.82;;;4.20;;
20421;SDS011;10370;53.102;18.034;2023-07-02T14:48:20;10.52;;;4.50;;
20421;SDS011;10370;53.102;18.034;2023-07-02T14:53:43;8.43;;;4.30;;
20421;SDS011;10370;53.102;18.034;2023-07-02T14:59:06;9.65;;;4.30;;
20421;SDS011;10370;53.102;18.034;2023-07-02T15:04:30;11.95;;;4.75;;
20421;SDS011;10370;53.102;18.034;2023-07-02T15:09:53;10.90;;;4.35;;
20421;SDS011;10370;53.102;18.034;2023-07-02T15:15:16;8.15;;;4.78;;
20421;SDS011;10370;53.102;18.034;2023-07-02T15:20:39;9.25;;;4.88;;
20421;SDS011;10370;53.102;18.034;2023-07-02T15:26:02;12.38;;;4.63;;
20421;SDS011;10370;53.102;18.034;2023-07-02T15:31:26;10.15;;;4.63;;
20421;SDS011;10370;53.102;18.034;2023-07-02T15:36:49;9.52;;;4.85;;
20421;SDS011;10370;53.102;18.034;2023-07-02T15:42:13;10.38;;;4.43;;
20421;SDS011;10370;53.102;18.034;2023-07-02T15:47:36;9.40;;;4.70;;
20421;SDS011;10370;53.102;18.034;2023-07-02T15:52:59;11.13;;;5.00;;
20421;SDS011;10370;53.102;18.034;2023-07-02T15:58:22;8.35;;;4.65;;
20421;SDS011;10370;53.102;18.034;2023-07-02T16:03:48;7.95;;;4.68;;
20421;SDS011;10370;53.102;18.034;2023-07-02T16:09:12;10.45;;;4.78;;
20421;SDS011;10370;53.102;18.034;2023-07-02T16:14:35;11.73;;;5.25;;
20421;SDS011;10370;53.102;18.034;2023-07-02T16:19:59;13.90;;;5.07;;
20421;SDS011;10370;53.102;18.034;2023-07-02T16:25:22;9.27;;;4.63;;
20421;SDS011;10370;53.102;18.034;2023-07-02T16:30:44;9.32;;;4.82;;
20421;SDS011;10370;53.102;18.034;2023-07-02T16:36:08;9.90;;;5.35;;
20421;SDS011;10370;53.102;18.034;2023-07-02T16:41:32;7.90;;;5.32;;
20421;SDS011;10370;53.102;18.034;2023-07-02T16:46:58;13.10;;;5.40;;
20421;SDS011;10370;53.102;18.034;2023-07-02T16:52:21;10.15;;;5.43;;
20421;SDS011;10370;53.102;18.034;2023-07-02T16:57:43;10.43;;;5.05;;
20421;SDS011;10370;53.102;18.034;2023-07-02T17:03:06;12.68;;;5.55;;
20421;SDS011;10370;53.102;18.034;2023-07-02T17:08:37;11.30;;;5.63;;
20421;SDS011;10370;53.102;18.034;2023-07-02T17:14:01;12.10;;;5.53;;
20421;SDS011;10370;53.102;18.034;2023-07-02T17:19:26;14.48;;;5.70;;
20421;SDS011;10370;53.102;18.034;2023-07-02T17:24:51;15.50;;;6.07;;
20421;SDS011;10370;53.102;18.034;2023-07-02T17:30:15;15.82;;;6.47;;
20421;SDS011;10370;53.102;18.034;2023-07-02T17:35:41;16.20;;;6.32;;
20421;SDS011;10370;53.102;18.034;2023-07-02T17:41:05;17.63;;;6.20;;
20421;SDS011;10370;53.102;18.034;2023-07-02T17:46:33;16.52;;;6.60;;
20421;SDS011;10370;53.102;18.034;2023-07-02T17:51:57;15.98;;;5.95;;
20421;SDS011;10370;53.102;18.034;2023-07-02T17:57:20;15.02;;;6.13;;
20421;SDS011;10370;53.102;18.034;2023-07-02T18:02:43;15.20;;;6.60;;
20421;SDS011;10370;53.102;18.034;2023-07-02T18:08:06;13.73;;;6.80;;
20421;SDS011;10370;53.102;18.034;2023-07-02T18:13:28;15.80;;;6.45;;
20421;SDS011;10370;53.102;18.034;2023-07-02T18:18:51;13.10;;;6.22;;
20421;SDS011;10370;53.102;18.034;2023-07-02T18:24:14;17.05;;;7.22;;
20421;SDS011;10370;53.102;18.034;2023-07-02T18:29:37;29.45;;;13.90;;
20421;SDS011;10370;53.102;18.034;2023-07-02T18:35:00;33.97;;;17.45;;
20421;SDS011;10370;53.102;18.034;2023-07-02T18:40:23;20.08;;;9.25;;
20421;SDS011;10370;53.102;18.034;2023-07-02T18:45:54;13.43;;;7.10;;
20421;SDS011;10370;53.102;18.034;2023-07-02T18:51:17;26.95;;;12.88;;
20421;SDS011;10370;53.102;18.034;2023-07-02T18:56:40;22.77;;;10.75;;
20421;SDS011;10370;53.102;18.034;2023-07-02T19:02:03;20.25;;;8.48;;
20421;SDS011;10370;53.102;18.034;2023-07-02T19:07:28;21.80;;;8.55;;
20421;SDS011;10370;53.102;18.034;2023-07-02T19:12:51;17.20;;;7.07;;
20421;SDS011;10370;53.102;18.034;2023-07-02T19:18:14;14.82;;;6.47;;
20421;SDS011;10370;53.102;18.034;2023-07-02T19:23:37;17.45;;;7.00;;
20421;SDS011;10370;53.102;18.034;2023-07-02T19:29:00;19.13;;;6.68;;
20421;SDS011;10370;53.102;18.034;2023-07-02T19:34:23;23.33;;;6.97;;
20421;SDS011;10370;53.102;18.034;2023-07-02T19:39:46;18.85;;;6.90;;
20421;SDS011;10370;53.102;18.034;2023-07-02T19:45:09;19.88;;;7.47;;
20421;SDS011;10370;53.102;18.034;2023-07-02T19:50:32;21.38;;;7.75;;
20421;SDS011;10370;53.102;18.034;2023-07-02T19:55:56;19.83;;;7.45;;
20421;SDS011;10370;53.102;18.034;2023-07-02T20:01:20;17.63;;;6.93;;
20421;SDS011;10370;53.102;18.034;2023-07-02T20:06:44;18.02;;;8.27;;
20421;SDS011;10370;53.102;18.034;2023-07-02T20:12:08;23.45;;;7.22;;
20421;SDS011;10370;53.102;18.034;2023-07-02T20:17:32;21.25;;;7.63;;
20421;SDS011;10370;53.102;18.034;2023-07-02T20:22:56;17.70;;;8.10;;
20421;SDS011;10370;53.102;18.034;2023-07-02T20:28:20;17.75;;;8.43;;
20421;SDS011;10370;53.102;18.034;2023-07-02T20:33:43;27.52;;;9.00;;
20421;SDS011;10370;53.102;18.034;2023-07-02T20:39:06;19.98;;;8.70;;
20421;SDS011;10370;53.102;18.034;2023-07-02T20:44:30;18.85;;;7.75;;
20421;SDS011;10370;53.102;18.034;2023-07-02T20:49:53;22.60;;;9.13;;
20421;SDS011;10370;53.102;18.034;2023-07-02T20:55:16;23.70;;;7.82;;
20421;SDS011;10370;53.102;18.034;2023-07-02T21:00:41;21.83;;;8.30;;
20421;SDS011;10370;53.102;18.034;2023-07-02T21:06:18;22.20;;;9.63;;
20421;SDS011;10370;53.102;18.034;2023-07-02T21:11:41;23.80;;;7.80;;
20421;SDS011;10370;53.102;18.034;2023-07-02T21:17:04;18.40;;;8.40;;
20421;SDS011;10370;53.102;18.034;2023-07-02T21:22:29;20.58;;;8.43;;
20421;SDS011;10370;53.102;18.034;2023-07-02T21:27:52;15.90;;;8.15;;
20421;SDS011;10370;53.102;18.034;2023-07-02T21:33:15;18.60;;;8.32;;
20421;SDS011;10370;53.102;18.034;2023-07-02T21:38:38;16.85;;;8.40;;
20421;SDS011;10370;53.102;18.034;2023-07-02T21:44:02;17.40;;;8.05;;
20421;SDS011;10370;53.102;18.034;2023-07-02T21:49:25;16.92;;;7.65;;
20421;SDS011;10370;53.102;18.034;2023-07-02T21:54:49;15.77;;;8.05;;
20421;SDS011;10370;53.102;18.034;2023-07-02T22:00:12;18.52;;;8.18;;
20421;SDS011;10370;53.102;18.034;2023-07-02T22:05:35;22.13;;;8.50;;
20421;SDS011;10370;53.102;18.034;2023-07-02T22:10:58;17.25;;;8.45;;
20421;SDS011;10370;53.102;18.034;2023-07-02T22:16:33;17.00;;;8.38;;
20421;SDS011;10370;53.102;18.034;2023-07-02T22:21:56;19.52;;;8.55;;
20421;SDS011;10370;53.102;18.034;2023-07-02T22:27:19;18.73;;;8.20;;
20421;SDS011;10370;53.102;18.034;2023-07-02T22:32:41;18.98;;;8.52;;
20421;SDS011;10370;53.102;18.034;2023-07-02T22:38:04;23.75;;;8.52;;
20421;SDS011;10370;53.102;18.034;2023-07-02T22:43:27;16.90;;;7.93;;
20421;SDS011;10370;53.102;18.034;2023-07-02T22:48:49;16.40;;;7.95;;
20421;SDS011;10370;53.102;18.034;2023-07-02T22:54:12;22.15;;;8.25;;
20421;SDS011;10370;53.102;18.034;2023-07-02T22:59:34;18.60;;;9.05;;
20421;SDS011;10370;53.102;18.034;2023-07-02T23:04:57;17.70;;;7.53;;
20421;SDS011;10370;53.102;18.034;2023-07-02T23:10:20;17.92;;;8.25;;
20421;SDS011;10370;53.102;18.034;2023-07-02T23:15:43;20.13;;;8.65;;
20421;SDS011;10370;53.102;18.034;2023-07-02T23:21:06;18.00;;;8.48;;
20421;SDS011;10370;53.102;18.034;2023-07-02T23:26:28;15.95;;;8.40;;
20421;SDS011;10370;53.102;18.034;2023-07-02T23:31:54;16.83;;;8.30;;
20421;SDS011;10370;53.102;18.034;2023-07-02T23:37:16;16.65;;;8.40;;
20421;SDS011;10370;53.102;18.034;2023-07-02T23:42:39;31.33;;;9.02;;
20421;SDS011;10370;53.102;18.034;2023-07-02T23:48:02;19.35;;;8.73;;
20421;SDS011;10370;53.102;18.034;2023-07-02T23:53:25;18.92;;;8.40;;
20421;SDS011;10370;53.102;18.034;2023-07-02T23:58:47;16.65;;;8.23;;
